Time;durP1;ratioP1;P1;durP2;ratioP2;P2;SDS_P1;SDS_P2;PMS_P1;PMS_P2;Temp;Humidity;BMP_temperature;BMP_pressure;BME280_temperature;BME280_humidity;BME280_pressure;Samples;Min_cycle;Max_cycle;Signal;HPM_P1;HPM_P2
2022/01/23 00:02:26;;;;;;;7.97;5.10;;;;;;;;;;7365271;19;20823;-40
2022/01/23 00:04:56;;;;;;;10.20;6.05;;;;;;;;;;7371695;19;20904;-40
2022/01/23 00:07:31;;;;;;;11.75;5.85;;;;;;;;;;7365674;19;20187;-40
2022/01/23 00:10:01;;;;;;;10.10;5.15;;;;;;;;;;7372910;19;20119;-40
2022/01/23 00:12:35;;;;;;;9.10;6.00;;;;;;;;;;7372502;19;20134;-40
2022/01/23 00:17:50;;;;;;;8.07;5.75;;;;;;;;;;7373419;19;20167;-40
2022/01/23 00:20:19;;;;;;;7.88;5.00;;;;;;;;;;7378251;19;20498;-40
2022/01/23 00:22:55;;;;;;;8.90;5.60;;;;;;;;;;7373514;19;20124;-40
2022/01/23 00:30:55;;;;;;;7.30;5.90;;;;;;;;;;7372824;19;20214;-33
2022/01/23 00:33:28;;;;;;;8.75;5.78;;;;;;;;;;7373224;19;20135;-34
2022/01/23 00:35:57;;;;;;;6.53;4.55;;;;;;;;;;7374807;19;20134;-33
2022/01/23 00:38:30;;;;;;;8.20;5.38;;;;;;;;;;7372255;19;20124;-33
2022/01/23 00:40:59;;;;;;;7.28;4.60;;;;;;;;;;7370115;19;20134;-33
2022/01/23 00:43:34;;;;;;;6.25;5.13;;;;;;;;;;7370480;19;20140;-33
2022/01/23 00:46:21;;;;;;;6.65;4.70;;;;;;;;;;7368440;19;20239;-33
2022/01/23 00:49:14;;;;;;;10.98;5.72;;;;;;;;;;7366584;19;20135;-33
2022/01/23 00:51:45;;;;;;;10.02;5.75;;;;;;;;;;7369628;19;20131;-33
2022/01/23 00:54:17;;;;;;;8.32;4.68;;;;;;;;;;7370657;19;20135;-33
2022/01/23 00:56:47;;;;;;;9.55;5.65;;;;;;;;;;7371270;19;20131;-33
2022/01/23 00:59:17;;;;;;;9.32;5.43;;;;;;;;;;7371777;19;20132;-33
2022/01/23 01:01:48;;;;;;;11.10;6.78;;;;;;;;;;7363335;19;20159;-39
2022/01/23 01:04:17;;;;;;;6.40;4.80;;;;;;;;;;7374186;19;20135;-39
2022/01/23 01:06:48;;;;;;;10.70;5.55;;;;;;;;;;7369279;19;20773;-40
2022/01/23 01:09:20;;;;;;;7.85;5.05;;;;;;;;;;7367562;19;20139;-39
2022/01/23 01:14:56;;;;;;;9.35;5.20;;;;;;;;;;7371937;19;20123;-39
2022/01/23 01:17:38;;;;;;;8.63;5.05;;;;;;;;;;7375526;19;20605;-40
2022/01/23 01:31:09;;;;;;;7.85;5.57;;;;;;;;;;7371901;19;20128;-41
2022/01/23 01:33:46;;;;;;;8.80;5.60;;;;;;;;;;7372968;19;20143;-40
2022/01/23 01:36:34;;;;;;;7.22;4.80;;;;;;;;;;7373113;19;20568;-40
2022/01/23 01:39:09;;;;;;;7.97;5.28;;;;;;;;;;7368622;19;20578;-39
2022/01/23 01:41:43;;;;;;;8.50;4.78;;;;;;;;;;7371428;19;20140;-39
2022/01/23 01:44:16;;;;;;;8.07;4.68;;;;;;;;;;7375737;19;20496;-39
2022/01/23 01:47:02;;;;;;;9.30;5.57;;;;;;;;;;7373664;19;20147;-39
2022/01/23 01:49:39;;;;;;;9.52;5.93;;;;;;;;;;7370303;19;20163;-39
2022/01/23 01:52:11;;;;;;;9.13;4.47;;;;;;;;;;7369342;19;20712;-40
2022/01/23 01:54:41;;;;;;;7.85;5.07;;;;;;;;;;7370001;19;20142;-39
2022/01/23 01:57:20;;;;;;;11.25;5.93;;;;;;;;;;7372528;19;20135;-40
2022/01/23 02:00:37;;;;;;;7.97;5.20;;;;;;;;;;7372233;19;20598;-40
2022/01/23 02:08:46;;;;;;;12.43;6.35;;;;;;;;;;7369315;19;20159;-39
2022/01/23 02:11:21;;;;;;;14.02;7.20;;;;;;;;;;7372809;19;20132;-40
2022/01/23 02:14:07;;;;;;;9.88;5.72;;;;;;;;;;7373097;19;20131;-40
2022/01/23 02:22:47;;;;;;;11.95;6.57;;;;;;;;;;7369108;19;20142;-40
2022/01/23 02:25:41;;;;;;;9.52;6.53;;;;;;;;;;7371294;19;20187;-40
2022/01/23 02:53:17;;;;;;;12.07;6.75;;;;;;;;;;7370202;19;20127;-40
2022/01/23 02:55:52;;;;;;;11.93;6.60;;;;;;;;;;7363433;19;20610;-40
2022/01/23 02:58:24;;;;;;;11.45;6.68;;;;;;;;;;7367934;19;20131;-40
2022/01/23 03:01:07;;;;;;;13.02;8.00;;;;;;;;;;7361984;19;20160;-39
2022/01/23 03:04:12;;;;;;;11.43;6.90;;;;;;;;;;7357953;19;20138;-39
2022/01/23 03:07:35;;;;;;;10.63;6.60;;;;;;;;;;7369822;19;20202;-40
2022/01/23 03:10:09;;;;;;;11.57;6.53;;;;;;;;;;7366875;19;20142;-33
2022/01/23 03:15:59;;;;;;;11.07;6.22;;;;;;;;;;7369867;19;20174;-33
2022/01/23 03:29:55;;;;;;;15.30;9.05;;;;;;;;;;7365301;19;20150;-33
2022/01/23 03:32:32;;;;;;;15.15;7.53;;;;;;;;;;7374871;19;20148;-33
2022/01/23 03:35:07;;;;;;;13.93;7.80;;;;;;;;;;7363483;19;20124;-33
2022/01/23 03:37:37;;;;;;;12.57;6.88;;;;;;;;;;7369775;19;20208;-33
2022/01/23 03:40:07;;;;;;;12.23;7.80;;;;;;;;;;7361898;19;20602;-33
2022/01/23 03:42:41;;;;;;;13.30;7.88;;;;;;;;;;7363652;19;20139;-33
2022/01/23 03:45:35;;;;;;;13.65;6.78;;;;;;;;;;7370268;19;20120;-33
2022/01/23 03:50:53;;;;;;;18.20;8.38;;;;;;;;;;7367610;19;20177;-33
2022/01/23 03:53:35;;;;;;;13.45;6.78;;;;;;;;;;7369635;19;20131;-33
2022/01/23 03:56:05;;;;;;;13.13;7.93;;;;;;;;;;7362041;19;20891;-33
2022/01/23 03:58:39;;;;;;;14.40;8.02;;;;;;;;;;7367127;19;20135;-33
2022/01/23 04:01:16;;;;;;;13.82;8.02;;;;;;;;;;7358011;19;20151;-33
2022/01/23 04:03:46;;;;;;;18.27;10.30;;;;;;;;;;7366896;19;20132;-34
2022/01/23 04:06:18;;;;;;;17.45;8.75;;;;;;;;;;7371721;19;20146;-33
2022/01/23 04:08:49;;;;;;;16.40;9.13;;;;;;;;;;7371370;19;20130;-33
2022/01/23 04:11:19;;;;;;;16.67;7.35;;;;;;;;;;7369318;19;20201;-33
2022/01/23 04:13:55;;;;;;;15.63;7.82;;;;;;;;;;7366877;19;20146;-33
2022/01/23 04:16:49;;;;;;;15.57;9.05;;;;;;;;;;7368706;19;20211;-33
2022/01/23 04:19:33;;;;;;;14.65;7.15;;;;;;;;;;7368093;19;20131;-33
2022/01/23 04:33:26;;;;;;;18.77;10.20;;;;;;;;;;7370448;19;20147;-33
2022/01/23 04:47:42;;;;;;;15.73;8.60;;;;;;;;;;7374543;19;20187;-33
2022/01/23 05:01:02;;;;;;;17.98;8.75;;;;;;;;;;7364839;19;20543;-33
2022/01/23 05:06:59;;;;;;;17.75;10.02;;;;;;;;;;7370123;19;20139;-33
2022/01/23 05:09:49;;;;;;;17.15;9.25;;;;;;;;;;7372300;19;20155;-33
2022/01/23 05:12:39;;;;;;;17.70;10.15;;;;;;;;;;7369701;19;20131;-34
2022/01/23 05:15:11;;;;;;;21.40;11.20;;;;;;;;;;7373479;19;20139;-34
2022/01/23 05:17:43;;;;;;;20.35;10.65;;;;;;;;;;7371900;19;20235;-33
2022/01/23 05:20:15;;;;;;;20.30;10.70;;;;;;;;;;7372011;19;20136;-40
2022/01/23 05:22:50;;;;;;;17.48;10.73;;;;;;;;;;7366458;19;20139;-41
2022/01/23 05:25:23;;;;;;;21.40;9.75;;;;;;;;;;7371447;19;20154;-40
2022/01/23 05:27:55;;;;;;;20.52;10.07;;;;;;;;;;7371342;19;20228;-40
2022/01/23 05:30:25;;;;;;;14.98;9.18;;;;;;;;;;7373546;19;20169;-41
2022/01/23 05:32:57;;;;;;;17.10;10.00;;;;;;;;;;7369271;19;20135;-41
2022/01/23 05:35:32;;;;;;;18.60;10.05;;;;;;;;;;7365530;19;20123;-40
2022/01/23 05:38:04;;;;;;;21.25;11.80;;;;;;;;;;7366231;19;20130;-40
2022/01/23 05:40:34;;;;;;;16.58;9.70;;;;;;;;;;7363153;19;20131;-40
2022/01/23 05:43:07;;;;;;;16.10;10.15;;;;;;;;;;7365055;19;20525;-40
2022/01/23 05:45:41;;;;;;;20.90;10.23;;;;;;;;;;7366900;19;20747;-39
2022/01/23 05:48:11;;;;;;;19.70;11.75;;;;;;;;;;7367592;19;20949;-39
2022/01/23 05:51:00;;;;;;;26.10;12.50;;;;;;;;;;7372112;19;20147;-40
2022/01/23 05:53:34;;;;;;;18.67;10.15;;;;;;;;;;7373695;19;20136;-39
2022/01/23 05:56:10;;;;;;;19.83;10.30;;;;;;;;;;7368022;19;20142;-40
2022/01/23 05:59:00;;;;;;;14.00;8.45;;;;;;;;;;7372284;19;20142;-40
2022/01/23 06:01:37;;;;;;;18.83;10.57;;;;;;;;;;7365795;19;20155;-40
2022/01/23 06:04:12;;;;;;;18.33;9.43;;;;;;;;;;7364801;19;20141;-40
2022/01/23 06:06:50;;;;;;;22.55;10.10;;;;;;;;;;7368747;19;20154;-39
2022/01/23 06:09:23;;;;;;;20.20;12.80;;;;;;;;;;7371395;19;20483;-39
2022/01/23 06:11:54;;;;;;;24.00;11.05;;;;;;;;;;7368810;19;20198;-40
2022/01/23 06:14:25;;;;;;;20.70;13.32;;;;;;;;;;7370943;19;20135;-40
2022/01/23 06:16:57;;;;;;;22.63;12.10;;;;;;;;;;7365016;19;20132;-39
2022/01/23 06:19:48;;;;;;;24.70;13.70;;;;;;;;;;7369590;19;20131;-40
2022/01/23 06:22:36;;;;;;;20.90;11.10;;;;;;;;;;7369414;19;20608;-39
2022/01/23 06:25:31;;;;;;;21.55;12.30;;;;;;;;;;7364918;19;20170;-40
2022/01/23 06:28:09;;;;;;;20.67;11.18;;;;;;;;;;7373696;19;20123;-40
2022/01/23 06:30:40;;;;;;;18.45;10.70;;;;;;;;;;7358763;19;20123;-40
2022/01/23 06:33:12;;;;;;;20.58;11.38;;;;;;;;;;7371503;19;20123;-40
2022/01/23 06:35:41;;;;;;;21.63;11.80;;;;;;;;;;7362683;19;20139;-39
2022/01/23 06:38:11;;;;;;;21.85;11.00;;;;;;;;;;7368580;19;20878;-40
2022/01/23 06:40:43;;;;;;;20.35;12.13;;;;;;;;;;7372206;19;20482;-40
2022/01/23 06:43:38;;;;;;;18.58;9.32;;;;;;;;;;7365977;19;20589;-39
2022/01/23 06:46:23;;;;;;;17.88;9.50;;;;;;;;;;7369503;19;20143;-41
2022/01/23 06:48:53;;;;;;;20.30;10.52;;;;;;;;;;7367430;19;20909;-39
2022/01/23 06:51:23;;;;;;;22.80;13.43;;;;;;;;;;7359400;19;20371;-40
2022/01/23 06:53:53;;;;;;;20.85;10.73;;;;;;;;;;7364564;19;20874;-40
2022/01/23 06:56:25;;;;;;;29.58;14.95;;;;;;;;;;7358354;19;20124;-40
2022/01/23 06:58:57;;;;;;;23.13;12.98;;;;;;;;;;7346057;19;20135;-40
2022/01/23 07:01:27;;;;;;;18.02;11.73;;;;;;;;;;7351779;19;20198;-40
2022/01/23 07:04:03;;;;;;;23.65;11.70;;;;;;;;;;7372887;19;20123;-39
2022/01/23 07:06:52;;;;;;;16.15;9.73;;;;;;;;;;7371606;19;20124;-40
2022/01/23 07:09:32;;;;;;;17.10;10.55;;;;;;;;;;7366772;19;20206;-40
2022/01/23 07:12:16;;;;;;;18.73;10.35;;;;;;;;;;7367281;19;20156;-39
2022/01/23 07:15:12;;;;;;;22.63;11.80;;;;;;;;;;7358857;19;20231;-40
2022/01/23 07:17:42;;;;;;;24.52;12.18;;;;;;;;;;7369076;19;20139;-39
2022/01/23 07:20:30;;;;;;;23.27;12.10;;;;;;;;;;7370444;19;20609;-40
2022/01/23 07:23:06;;;;;;;23.00;12.45;;;;;;;;;;7363438;19;20472;-39
2022/01/23 07:25:39;;;;;;;21.50;11.38;;;;;;;;;;7366255;19;20696;-39
2022/01/23 07:28:15;;;;;;;22.73;13.05;;;;;;;;;;7364766;19;20128;-40
2022/01/23 07:30:50;;;;;;;20.33;13.48;;;;;;;;;;7370316;19;20131;-40
2022/01/23 07:33:20;;;;;;;20.35;10.73;;;;;;;;;;7364945;19;20119;-40
2022/01/23 07:35:50;;;;;;;26.38;12.50;;;;;;;;;;7361339;19;20484;-39
2022/01/23 07:38:20;;;;;;;25.10;13.55;;;;;;;;;;7363998;19;20135;-40
2022/01/23 07:41:25;;;;;;;21.42;12.07;;;;;;;;;;7351650;19;20143;-39
2022/01/23 07:44:02;;;;;;;19.95;11.40;;;;;;;;;;7361492;19;20487;-40
2022/01/23 07:46:56;;;;;;;18.65;10.38;;;;;;;;;;7354313;19;20224;-39
2022/01/23 07:49:37;;;;;;;25.63;12.85;;;;;;;;;;7363474;19;20188;-39
2022/01/23 07:52:29;;;;;;;25.02;12.38;;;;;;;;;;7367505;19;20131;-39
2022/01/23 07:55:14;;;;;;;24.63;12.52;;;;;;;;;;7364331;19;20222;-39
2022/01/23 07:58:05;;;;;;;24.65;12.63;;;;;;;;;;7363145;19;20921;-40
2022/01/23 08:00:47;;;;;;;24.90;12.40;;;;;;;;;;7359243;19;20160;-39
2022/01/23 08:03:17;;;;;;;24.23;11.57;;;;;;;;;;7378773;19;20139;-38
2022/01/23 08:06:05;;;;;;;24.17;12.05;;;;;;;;;;7373908;19;20127;-39
2022/01/23 08:08:44;;;;;;;25.25;12.48;;;;;;;;;;7377332;19;20205;-40
2022/01/23 08:11:29;;;;;;;18.77;11.65;;;;;;;;;;7368595;19;20146;-39
2022/01/23 08:13:59;;;;;;;22.23;12.25;;;;;;;;;;7372868;19;20132;-40
2022/01/23 08:16:31;;;;;;;25.13;13.55;;;;;;;;;;7372802;19;20367;-39
2022/01/23 08:19:01;;;;;;;28.40;16.17;;;;;;;;;;7364153;19;20396;-39
2022/01/23 08:21:33;;;;;;;24.55;14.55;;;;;;;;;;7371768;19;20127;-40
2022/01/23 08:24:03;;;;;;;23.17;12.30;;;;;;;;;;7365193;19;20130;-40
2022/01/23 08:26:34;;;;;;;23.23;12.55;;;;;;;;;;7349656;19;20132;-39
2022/01/23 08:29:07;;;;;;;24.65;12.45;;;;;;;;;;7375919;19;20721;-40
2022/01/23 08:31:39;;;;;;;24.42;14.02;;;;;;;;;;7373502;19;20123;-39
2022/01/23 08:34:13;;;;;;;24.17;13.20;;;;;;;;;;7374979;19;20704;-38
2022/01/23 08:36:43;;;;;;;25.90;12.98;;;;;;;;;;7372060;19;20132;-39
2022/01/23 08:39:14;;;;;;;22.35;12.70;;;;;;;;;;7370629;19;20134;-40
2022/01/23 08:41:53;;;;;;;28.45;14.75;;;;;;;;;;7369131;19;20127;-40
2022/01/23 08:44:24;;;;;;;22.65;13.85;;;;;;;;;;7376131;19;20659;-40
2022/01/23 08:46:56;;;;;;;23.35;13.13;;;;;;;;;;7379158;19;20825;-39
2022/01/23 08:49:27;;;;;;;26.88;13.18;;;;;;;;;;7378336;19;20151;-40
2022/01/23 08:51:57;;;;;;;24.73;13.13;;;;;;;;;;7374252;19;20132;-33
2022/01/23 08:54:30;;;;;;;27.10;15.02;;;;;;;;;;7380537;19;20172;-33
2022/01/23 08:56:59;;;;;;;23.52;13.27;;;;;;;;;;7377759;19;20135;-33
2022/01/23 08:59:29;;;;;;;26.55;14.48;;;;;;;;;;7377879;19;20132;-33
2022/01/23 09:02:01;;;;;;;27.27;14.98;;;;;;;;;;7363945;19;20151;-33
2022/01/23 09:04:33;;;;;;;29.50;13.50;;;;;;;;;;7370741;19;20194;-33
2022/01/23 09:07:03;;;;;;;26.05;14.00;;;;;;;;;;7368255;19;20632;-33
2022/01/23 09:09:37;;;;;;;23.55;13.48;;;;;;;;;;7371050;19;20847;-33
2022/01/23 09:12:20;;;;;;;25.02;15.02;;;;;;;;;;7374536;19;20154;-33
2022/01/23 09:14:50;;;;;;;24.60;13.95;;;;;;;;;;7373486;19;20154;-33
2022/01/23 09:17:24;;;;;;;24.13;12.82;;;;;;;;;;7360873;19;20143;-33
2022/01/23 09:19:56;;;;;;;25.20;13.85;;;;;;;;;;7375869;19;20646;-40
2022/01/23 09:22:28;;;;;;;25.17;14.85;;;;;;;;;;7364223;19;20481;-39
2022/01/23 09:24:58;;;;;;;22.63;13.82;;;;;;;;;;7374048;19;20584;-39
2022/01/23 09:27:28;;;;;;;25.58;13.35;;;;;;;;;;7371309;19;20199;-40
2022/01/23 09:30:05;;;;;;;22.85;14.20;;;;;;;;;;7371144;19;20479;-40
2022/01/23 09:32:41;;;;;;;23.80;13.65;;;;;;;;;;7368854;19;20147;-39
2022/01/23 09:35:11;;;;;;;25.08;13.20;;;;;;;;;;7368120;19;20135;-39
2022/01/23 09:37:41;;;;;;;22.30;13.13;;;;;;;;;;7362726;19;20151;-39
2022/01/23 09:40:14;;;;;;;23.50;12.70;;;;;;;;;;7366032;19;21108;-39
2022/01/23 09:42:54;;;;;;;24.90;13.90;;;;;;;;;;7370590;19;20139;-39
2022/01/23 09:45:24;;;;;;;22.97;13.73;;;;;;;;;;7373011;19;20558;-39
2022/01/23 09:47:57;;;;;;;19.83;12.03;;;;;;;;;;7375750;19;20871;-40
2022/01/23 09:50:30;;;;;;;22.40;13.70;;;;;;;;;;7369899;19;20777;-33
2022/01/23 09:53:00;;;;;;;26.47;14.10;;;;;;;;;;7368828;19;20575;-33
2022/01/23 09:55:32;;;;;;;22.15;13.82;;;;;;;;;;7370365;19;20372;-33
2022/01/23 09:58:04;;;;;;;20.38;13.18;;;;;;;;;;7374671;19;20128;-33
2022/01/23 10:00:33;;;;;;;21.77;12.90;;;;;;;;;;7356411;19;20913;-34
2022/01/23 10:03:07;;;;;;;20.20;13.90;;;;;;;;;;7361956;19;20373;-33
2022/01/23 10:05:37;;;;;;;19.37;12.50;;;;;;;;;;7364365;19;20808;-33
2022/01/23 10:08:07;;;;;;;23.10;12.55;;;;;;;;;;7371993;19;20746;-33
2022/01/23 10:10:41;;;;;;;20.63;12.65;;;;;;;;;;7354354;19;20130;-33
2022/01/23 10:13:11;;;;;;;19.65;13.05;;;;;;;;;;7365776;19;21496;-33
2022/01/23 10:15:41;;;;;;;21.83;12.25;;;;;;;;;;7357373;19;20131;-33
2022/01/23 10:18:16;;;;;;;20.40;11.88;;;;;;;;;;7363478;19;20132;-33
2022/01/23 10:20:46;;;;;;;21.00;11.57;;;;;;;;;;7354641;19;20162;-33
2022/01/23 10:23:16;;;;;;;20.20;11.87;;;;;;;;;;7368485;19;20223;-33
2022/01/23 10:25:48;;;;;;;23.20;13.57;;;;;;;;;;7368903;19;20371;-33
2022/01/23 10:28:20;;;;;;;21.48;11.18;;;;;;;;;;7358659;19;20605;-33
2022/01/23 10:30:56;;;;;;;24.15;14.48;;;;;;;;;;7360575;19;20571;-33
2022/01/23 10:33:29;;;;;;;15.88;10.85;;;;;;;;;;7357253;19;20601;-33
2022/01/23 10:36:02;;;;;;;20.85;10.60;;;;;;;;;;7364233;19;20182;-33
2022/01/23 10:38:35;;;;;;;16.38;9.55;;;;;;;;;;7370347;19;20148;-33
2022/01/23 10:41:25;;;;;;;13.30;7.95;;;;;;;;;;7371896;19;20130;-33
2022/01/23 10:47:17;;;;;;;13.13;9.10;;;;;;;;;;7365143;19;20614;-33
2022/01/23 10:49:53;;;;;;;16.48;10.88;;;;;;;;;;7353949;19;20171;-33
2022/01/23 10:52:33;;;;;;;18.08;10.40;;;;;;;;;;7339766;19;20605;-34
2022/01/23 10:55:08;;;;;;;58.40;46.15;;;;;;;;;;7345578;19;20151;-33
2022/01/23 10:57:39;;;;;;;18.30;13.03;;;;;;;;;;7353140;19;20131;-33
2022/01/23 11:00:10;;;;;;;18.58;12.20;;;;;;;;;;7359927;19;21019;-40
2022/01/23 11:02:41;;;;;;;14.60;9.18;;;;;;;;;;7361368;19;20657;-40
2022/01/23 11:05:15;;;;;;;14.05;9.05;;;;;;;;;;7372407;19;20124;-40
2022/01/23 11:07:47;;;;;;;12.45;8.32;;;;;;;;;;7370667;19;20141;-40
2022/01/23 11:10:18;;;;;;;15.93;9.50;;;;;;;;;;7365125;19;20482;-40
2022/01/23 11:18:34;;;;;;;13.52;8.18;;;;;;;;;;7367481;19;20134;-40
2022/01/23 11:21:21;;;;;;;14.02;9.35;;;;;;;;;;7363716;19;20135;-40
2022/01/23 11:23:59;;;;;;;17.25;9.00;;;;;;;;;;7366467;19;20507;-40
2022/01/23 11:26:30;;;;;;;16.65;10.35;;;;;;;;;;7367889;19;20667;-40
2022/01/23 11:29:00;;;;;;;16.60;10.30;;;;;;;;;;7365251;19;20425;-40
2022/01/23 11:31:29;;;;;;;16.52;10.40;;;;;;;;;;7360891;19;20917;-40
2022/01/23 11:34:05;;;;;;;16.98;10.02;;;;;;;;;;7371350;19;20146;-39
2022/01/23 11:36:38;;;;;;;15.98;9.63;;;;;;;;;;7374071;19;20132;-40
2022/01/23 11:39:13;;;;;;;14.02;9.65;;;;;;;;;;7374769;19;20610;-39
2022/01/23 11:56:25;;;;;;;15.93;8.35;;;;;;;;;;7366788;19;20135;-40
2022/01/23 11:58:58;;;;;;;14.25;9.77;;;;;;;;;;7370717;19;20608;-40
2022/01/23 12:01:27;;;;;;;15.70;10.55;;;;;;;;;;7355268;19;20510;-40
2022/01/23 12:04:19;;;;;;;15.65;9.18;;;;;;;;;;7375846;19;20372;-39
2022/01/23 12:07:03;;;;;;;16.35;8.98;;;;;;;;;;7373909;19;20128;-40
2022/01/23 12:09:33;;;;;;;11.95;8.55;;;;;;;;;;7377792;19;20634;-40
2022/01/23 12:12:19;;;;;;;11.98;7.80;;;;;;;;;;7369518;19;20131;-39
2022/01/23 12:17:45;;;;;;;14.60;8.35;;;;;;;;;;7372565;19;20135;-40
2022/01/23 12:20:36;;;;;;;12.60;8.27;;;;;;;;;;7366671;19;20176;-39
2022/01/23 12:23:06;;;;;;;15.80;9.48;;;;;;;;;;7368743;19;20135;-40
2022/01/23 12:25:45;;;;;;;16.52;9.23;;;;;;;;;;7374287;19;20139;-40
2022/01/23 12:28:21;;;;;;;15.65;9.18;;;;;;;;;;7368353;19;20131;-38
2022/01/23 12:30:56;;;;;;;14.13;8.82;;;;;;;;;;7366777;19;20152;-40
2022/01/23 12:33:41;;;;;;;14.20;8.40;;;;;;;;;;7356191;19;20359;-40
2022/01/23 12:36:23;;;;;;;12.07;7.95;;;;;;;;;;7372212;19;20388;-40
2022/01/23 12:38:56;;;;;;;15.18;9.00;;;;;;;;;;7369373;19;20355;-40
2022/01/23 12:41:33;;;;;;;12.18;7.68;;;;;;;;;;7363629;19;20131;-40
2022/01/23 12:44:05;;;;;;;11.57;8.18;;;;;;;;;;7365891;19;20363;-40
2022/01/23 12:46:38;;;;;;;12.90;8.75;;;;;;;;;;7360676;19;20991;-40
2022/01/23 12:49:26;;;;;;;12.25;9.00;;;;;;;;;;7354505;19;20777;-40
2022/01/23 12:52:15;;;;;;;12.48;7.22;;;;;;;;;;7353779;19;20124;-40
2022/01/23 12:55:03;;;;;;;9.60;5.93;;;;;;;;;;7367140;19;20520;-40
2022/01/23 12:57:40;;;;;;;10.63;5.57;;;;;;;;;;7357639;19;20124;-40
2022/01/23 13:00:16;;;;;;;11.13;6.50;;;;;;;;;;7370196;19;20215;-40
2022/01/23 13:02:51;;;;;;;10.93;7.22;;;;;;;;;;7359760;19;20418;-42
2022/01/23 13:05:23;;;;;;;11.43;7.17;;;;;;;;;;7369325;19;20135;-41
2022/01/23 13:08:06;;;;;;;10.25;6.90;;;;;;;;;;7371159;19;20380;-42
2022/01/23 13:10:55;;;;;;;10.73;6.75;;;;;;;;;;7362777;19;20132;-41
2022/01/23 13:13:36;;;;;;;11.07;7.93;;;;;;;;;;7356545;19;20359;-41
2022/01/23 13:16:23;;;;;;;9.70;5.88;;;;;;;;;;7365706;19;20360;-41
2022/01/23 13:30:13;;;;;;;16.63;7.55;;;;;;;;;;7363091;19;20223;-41
2022/01/23 13:32:47;;;;;;;12.38;7.05;;;;;;;;;;7365725;19;20499;-41
2022/01/23 13:35:26;;;;;;;10.20;6.57;;;;;;;;;;7365162;19;21357;-41
2022/01/23 13:37:59;;;;;;;11.10;6.97;;;;;;;;;;7359396;19;20178;-42
2022/01/23 13:40:37;;;;;;;7.05;4.85;;;;;;;;;;7349934;19;20143;-42
2022/01/23 13:51:42;;;;;;;8.45;4.90;;;;;;;;;;7366380;19;20135;-39
2022/01/23 13:59:53;;;;;;;5.95;4.03;;;;;;;;;;7370561;19;20913;-40
2022/01/23 14:02:24;;;;;;;7.50;3.70;;;;;;;;;;7368277;19;20160;-40
2022/01/23 14:04:56;;;;;;;7.80;3.63;;;;;;;;;;7359239;19;20132;-40
2022/01/23 14:07:31;;;;;;;8.75;3.97;;;;;;;;;;7370658;19;20128;-40
2022/01/23 14:10:11;;;;;;;5.80;3.47;;;;;;;;;;7367489;19;20123;-40
2022/01/23 14:12:41;;;;;;;3.72;2.90;;;;;;;;;;7365589;19;20143;-39
2022/01/23 14:15:13;;;;;;;5.75;3.80;;;;;;;;;;7369088;19;20143;-39
2022/01/23 14:17:46;;;;;;;4.03;2.78;;;;;;;;;;7371393;19;21008;-39
2022/01/23 14:20:19;;;;;;;4.85;3.15;;;;;;;;;;7369527;19;20131;-40
2022/01/23 14:22:55;;;;;;;4.57;3.03;;;;;;;;;;7365199;19;20139;-40
2022/01/23 14:25:26;;;;;;;5.07;2.72;;;;;;;;;;7369962;19;20136;-40
2022/01/23 14:28:05;;;;;;;6.30;3.55;;;;;;;;;;7369060;19;20154;-40
2022/01/23 14:30:43;;;;;;;3.83;3.00;;;;;;;;;;7368211;19;20235;-39
2022/01/23 14:33:14;;;;;;;3.70;2.85;;;;;;;;;;7366002;19;20140;-40
2022/01/23 14:35:44;;;;;;;3.05;2.17;;;;;;;;;;7367771;19;20135;-39
2022/01/23 14:38:17;;;;;;;3.75;2.83;;;;;;;;;;7365108;19;20131;-40
2022/01/23 14:40:56;;;;;;;3.75;2.88;;;;;;;;;;7356620;19;20180;-40
2022/01/23 14:43:32;;;;;;;2.60;2.30;;;;;;;;;;7354254;19;20743;-40
2022/01/23 14:46:06;;;;;;;4.68;2.70;;;;;;;;;;7357722;19;20210;-40
2022/01/23 14:48:43;;;;;;;4.03;2.50;;;;;;;;;;7363495;19;20128;-39
2022/01/23 14:51:20;;;;;;;2.90;2.38;;;;;;;;;;7359864;19;20222;-40
2022/01/23 14:53:58;;;;;;;4.70;2.70;;;;;;;;;;7362816;19;20128;-40
2022/01/23 14:56:29;;;;;;;3.70;2.80;;;;;;;;;;7344085;19;20498;-40
2022/01/23 14:59:01;;;;;;;4.85;2.70;;;;;;;;;;7356239;19;20515;-39
2022/01/23 15:01:31;;;;;;;3.53;2.30;;;;;;;;;;7350122;19;20515;-40
2022/01/23 15:04:04;;;;;;;3.83;2.80;;;;;;;;;;7344489;19;20521;-41
2022/01/23 15:06:34;;;;;;;4.20;2.70;;;;;;;;;;7353205;19;20364;-40
2022/01/23 15:09:11;;;;;;;4.55;3.22;;;;;;;;;;7342615;19;20150;-40
2022/01/23 15:11:41;;;;;;;3.35;2.65;;;;;;;;;;7352226;19;20172;-40
2022/01/23 15:14:11;;;;;;;3.78;2.53;;;;;;;;;;7352826;19;20646;-41
2022/01/23 15:16:42;;;;;;;2.88;2.25;;;;;;;;;;7328958;19;20136;-40
2022/01/23 15:19:14;;;;;;;2.53;2.28;;;;;;;;;;7348111;19;20155;-40
2022/01/23 15:21:46;;;;;;;5.22;2.83;;;;;;;;;;7346858;19;20139;-41
2022/01/23 15:24:21;;;;;;;4.78;3.28;;;;;;;;;;7363566;19;20132;-40
2022/01/23 15:26:51;;;;;;;5.55;3.00;;;;;;;;;;7363946;19;20617;-40
2022/01/23 15:29:25;;;;;;;4.35;2.42;;;;;;;;;;7348209;19;20701;-34
2022/01/23 15:31:55;;;;;;;4.75;2.90;;;;;;;;;;7342518;19;20564;-35
2022/01/23 15:34:24;;;;;;;5.88;3.05;;;;;;;;;;7348881;19;20158;-34
2022/01/23 15:36:55;;;;;;;5.63;3.15;;;;;;;;;;7346676;19;20140;-35
2022/01/23 15:39:31;;;;;;;3.92;2.95;;;;;;;;;;7359780;19;20172;-34
2022/01/23 15:42:04;;;;;;;4.00;2.63;;;;;;;;;;7364123;19;20139;-34
2022/01/23 15:44:34;;;;;;;4.03;2.65;;;;;;;;;;7352664;19;20134;-34
2022/01/23 15:47:03;;;;;;;5.25;3.00;;;;;;;;;;7343372;19;20140;-33
2022/01/23 15:49:35;;;;;;;3.58;2.65;;;;;;;;;;7358968;19;20164;-34
2022/01/23 15:52:05;;;;;;;5.47;3.30;;;;;;;;;;7357762;19;20146;-33
2022/01/23 15:54:41;;;;;;;3.70;3.28;;;;;;;;;;7361641;19;21003;-34
2022/01/23 15:57:13;;;;;;;4.38;2.70;;;;;;;;;;7356227;19;20578;-33
2022/01/23 15:59:42;;;;;;;5.80;3.33;;;;;;;;;;7339031;19;20129;-33
2022/01/23 16:02:12;;;;;;;5.82;3.10;;;;;;;;;;7345110;19;20299;-33
2022/01/23 16:04:42;;;;;;;5.30;3.03;;;;;;;;;;7349299;19;20187;-34
2022/01/23 16:07:16;;;;;;;4.47;3.03;;;;;;;;;;7368248;19;20151;-34
2022/01/23 16:09:51;;;;;;;4.88;3.15;;;;;;;;;;7363841;19;20634;-33
2022/01/23 16:12:21;;;;;;;5.60;3.33;;;;;;;;;;7344204;19;20941;-33
2022/01/23 16:14:51;;;;;;;4.32;2.97;;;;;;;;;;7340158;19;20143;-37
2022/01/23 16:17:23;;;;;;;3.50;2.70;;;;;;;;;;7350558;19;20140;-38
2022/01/23 16:19:58;;;;;;;4.60;3.30;;;;;;;;;;7357464;19;20128;-37
2022/01/23 16:22:27;;;;;;;3.90;2.53;;;;;;;;;;7360869;19;20131;-37
2022/01/23 16:25:00;;;;;;;4.38;3.33;;;;;;;;;;7360643;19;20523;-39
2022/01/23 16:27:29;;;;;;;3.67;3.22;;;;;;;;;;7372081;19;20735;-38
2022/01/23 16:30:01;;;;;;;5.07;2.97;;;;;;;;;;7359479;19;20132;-37
2022/01/23 16:32:32;;;;;;;5.07;2.78;;;;;;;;;;7365704;19;20223;-38
2022/01/23 16:35:02;;;;;;;3.15;2.55;;;;;;;;;;7354756;19;20136;-38
2022/01/23 16:37:32;;;;;;;4.97;3.38;;;;;;;;;;7363952;19;20514;-37
2022/01/23 16:40:04;;;;;;;5.38;3.35;;;;;;;;;;7353688;19;20750;-37
2022/01/23 16:42:36;;;;;;;3.22;2.10;;;;;;;;;;7348716;19;20131;-38
2022/01/23 16:45:06;;;;;;;4.75;3.13;;;;;;;;;;7351418;19;20135;-39
2022/01/23 16:47:36;;;;;;;5.28;3.15;;;;;;;;;;7352974;19;20123;-38
2022/01/23 16:50:08;;;;;;;2.90;2.50;;;;;;;;;;7355331;19;20151;-38
2022/01/23 16:52:40;;;;;;;4.88;3.03;;;;;;;;;;7349124;19;20127;-38
2022/01/23 16:55:12;;;;;;;6.90;3.08;;;;;;;;;;7350004;19;20136;-37
2022/01/23 16:57:42;;;;;;;3.97;2.90;;;;;;;;;;7344559;19;20134;-37
2022/01/23 17:00:12;;;;;;;4.90;3.00;;;;;;;;;;7357677;19;20131;-37
2022/01/23 17:02:42;;;;;;;3.45;2.75;;;;;;;;;;7335792;19;20613;-37
2022/01/23 17:05:12;;;;;;;3.65;3.00;;;;;;;;;;7362628;19;20135;-37
2022/01/23 17:07:43;;;;;;;7.43;2.63;;;;;;;;;;7361460;19;20703;-37
2022/01/23 17:10:15;;;;;;;5.70;3.33;;;;;;;;;;7366528;19;20140;-38
2022/01/23 17:12:45;;;;;;;4.15;2.90;;;;;;;;;;7370769;19;20128;-37
2022/01/23 17:15:15;;;;;;;5.72;2.92;;;;;;;;;;7370093;19;20136;-38
2022/01/23 17:17:46;;;;;;;3.85;3.40;;;;;;;;;;7371924;19;20130;-37
2022/01/23 17:20:15;;;;;;;4.60;2.25;;;3.00;64.00;;;;;;7363737;19;20139;-45
2022/01/23 17:22:45;;;;;;;6.63;3.05;;;6.00;59.20;;;;;;7360455;19;20124;-44
2022/01/23 17:25:19;;;;;;;3.08;2.60;;;5.90;59.00;;;;;;7367019;19;20150;-44
2022/01/23 17:27:49;;;;;;;3.00;2.65;;;5.90;59.20;;;;;;7362977;19;20632;-44
2022/01/23 17:30:23;;;;;;;4.30;2.63;;;6.00;59.10;;;;;;7358528;19;20132;-44
2022/01/23 17:32:52;;;;;;;3.75;2.42;;;6.10;58.90;;;;;;7359863;19;20625;-43
2022/01/23 17:35:24;;;;;;;5.40;4.15;;;6.10;58.90;;;;;;7363204;19;20128;-45
2022/01/23 17:37:57;;;;;;;3.83;2.92;;;6.00;59.10;;;;;;7373867;19;20136;-44
2022/01/23 17:40:31;;;;;;;4.85;3.33;;;6.10;59.00;;;;;;7371590;19;20589;-45
2022/01/23 17:43:01;;;;;;;4.60;3.20;;;6.00;58.80;;;;;;7373854;19;20135;-43
2022/01/23 17:45:35;;;;;;;5.63;3.38;;;6.10;59.00;;;;;;7374767;19;20139;-44
2022/01/23 17:48:32;;;;;;;3.35;3.05;;;6.00;59.30;;;;;;7363861;19;20578;-44
2022/01/23 17:51:03;;;;;;;7.05;3.97;;;6.00;59.10;;;;;;7363441;19;20194;-37
2022/01/23 17:53:35;;;;;;;6.70;3.42;;;5.90;59.40;;;;;;7372143;19;20530;-37
2022/01/23 17:56:07;;;;;;;9.25;5.10;;;5.90;59.50;;;;;;7370528;19;20138;-37